Webcam Castelli Romani more information Webcam Castelli Romani


Webcam Traffico live more information Webcam Traffico live


avvertimento per Temporali more information blitzortung!


avvertimento per Pioggia more information rain snow radar


altri nostri siti meteo:

Meteo-CloudBanner Meteo-Cloud

Pomeziameteo 1Sito sul meteo

Pomeziameteo DashboardSito sul meteo

Caput FrigorisSito sul meteo

BarcellonameteoSito sul meteo

MeteoipassiSito sul meteo

ViterbometeoSito sul meteo

TortoretometeolidoSito sul meteo

MeteospinacetoSito sul meteo

MeteoardeaSito sul meteo

MeteopalestrinaSito sul meteo

MeteocastelliSito sul meteo

MeteoiserniaSito sul meteo

RomaeurmeteoSito sul meteo

MeteomarconiaSito sul meteo

CastelnuovovomanometeoSito sul meteo

MeteogonzagaSito sul meteo

MeteonetworkInvio dai a Meteonetwork

Rete Linea MeteoInvio dai a Meteonetwork

DesotermicaBanner Desotermica



Temporali Da: 26-03-2019 12:00 Fino a: 27-03-2019 00:59 Avvertimento per: Temporali Livello: Giallo info button
Pioggia Da: 26-03-2019 12:00 Fino a: 27-03-2019 00:59 Avvertimento per: Pioggia Livello: Giallo info button
Bassa temperatura estrema Da: 26-03-2019 09:00 Fino a: 23:59 Avvertimento per: Bassa temperatura estrema Livello: Giallo info button

Notice: Undefined offset: 5 in /web/htdocs/www.meteopomezia.it/home/weather28/metar/metarDisplay.php on line 75

Notice: Undefined offset: 6 in /web/htdocs/www.meteopomezia.it/home/weather28/metar/metarDisplay.php on line 75

Report METAR

   
LIRE - Pratica di mare
Dati ricevuti: 26-03-2019 04:55
Parzialmente nuvoloso  
Parzialmente nuvoloso  
   Vento: NE 11.1 km/h
Vento: NE 11.1 km/h
Temperatura: 11°C
P.to Rugiada: 9°C
Umidita: 88%
Barometro: 1009 hPa
Nuvole: Parzialmente nuvoloso
Visibilita: oltre 10 km
dettagli cloud: Parzialmente nuvoloso 1500 ft
LIRE 260355Z 06006KT 9999 SCT015 11/09 Q1009 RMK SCT VIS MIN 9999 WIND THR13 07005KT WIND THR31 /////KT BLU
LIRF - Fiumicino
Dati ricevuti: 26-03-2019 04:50
Poche nuvole  
Poche nuvole  
   Vento: NE 16.7 km/h
Vento: NE 16.7 km/h
Temperatura: 9°C
Temperatura Vento: 7°C
P.to Rugiada: 6°C
Umidita: 82%
Barometro: 1009 hPa
Nuvole: Poche nuvole
Visibilita: 9 km
dettagli cloud: Poche nuvole 2500 ft
LIRF 260350Z 07009KT 9000 FEW025 09/06 Q1009 NOSIG
LIRA - Ciampino
Dati ricevuti: 26-03-2019 04:50
Sereno  
Sereno  
   Vento: NE 7.4 km/h
Vento: NE 7.4 km/h
Temperatura: 9°C
Temperatura Vento: 8°C
P.to Rugiada: 5°C
Umidita: 76%
Barometro: 1009 hPa
Visibilita: oltre 10 km
dettagli cloud: Sereno
LIRA 260350Z 07004KT 040V150 CAVOK 09/05 Q1009
LIRL - Latina
Dati ricevuti: 25-03-2019 18:55
DATI Obsoleti
Sereno  
Sereno  
   Vento: Sud 5.6 km/h
Vento: Sud 5.6 km/h
Temperatura: 14°C
P.to Rugiada: 5°C
Umidita: 55%
Barometro: 1012 hPa
Visibilita: oltre 10 km
dettagli cloud: Sereno
LIRL 251755Z 19003KT CAVOK 14/05 Q1012
  

Script sviluppato da  Saratoga-weather.org Adattato per il modello da  Weerstation Leuven

Potete trovare le nostre info meteo anche a:

UK Metoffice

European Weather Network

Weather Underground

AWEKAS

Citizen Weather Observer Program (CWOP)

HAMweather, WeatherForYou, PWS Weather

Strumentazione usata:

Stazione meteo
Davis VP2

Programma gestore dati meteo
WVIEW

Server per i dati meteo
Pc-WDS5

Provider
PC-HP-6005

Davis VP2

WVIEW

Pc-WDS5

PC-HP-6005